createdAt,value
2019-05-16T00:00:29.027Z,8.10
2019-05-16T00:02:58.979Z,8.83
2019-05-16T00:05:27.908Z,5.85
2019-05-16T00:07:54.879Z,6.67
2019-05-16T00:10:21.731Z,9.25
2019-05-16T00:12:49.163Z,7.17
2019-05-16T00:15:18.016Z,7.10
2019-05-16T00:17:44.719Z,7.85
2019-05-16T00:20:12.262Z,8.08
2019-05-16T00:22:39.491Z,9.43
2019-05-16T00:25:08.692Z,8.83
2019-05-16T00:27:35.902Z,8.63
2019-05-16T00:30:04.090Z,9.48
2019-05-16T00:32:31.329Z,8.68
2019-05-16T00:34:58.427Z,6.75
2019-05-16T00:37:25.378Z,9.55
2019-05-16T00:39:52.986Z,9.25
2019-05-16T00:42:19.868Z,8.95
2019-05-16T00:44:47.863Z,8.25
2019-05-16T00:47:17.450Z,7.85
2019-05-16T00:49:43.716Z,7.62
2019-05-16T00:52:10.575Z,8.53
2019-05-16T00:54:38.434Z,8.58
2019-05-16T00:57:08.334Z,8.10
2019-05-16T00:59:35.600Z,7.75
2019-05-16T01:02:02.341Z,8.15
2019-05-16T01:04:29.194Z,8.85
2019-05-16T01:06:55.979Z,7.90
2019-05-16T01:09:22.948Z,9.35
2019-05-16T01:11:49.725Z,7.92
2019-05-16T01:14:17.713Z,9.20
2019-05-16T01:16:48.784Z,7.92
2019-05-16T01:19:15.583Z,8.93
2019-05-16T01:21:42.189Z,7.60
2019-05-16T01:24:08.676Z,6.87
2019-05-16T01:26:35.412Z,8.15
2019-05-16T01:29:04.783Z,7.92
2019-05-16T01:31:32.867Z,9.08
2019-05-16T01:33:59.468Z,8.80
2019-05-16T01:36:36.029Z,6.87
2019-05-16T01:38:54.427Z,9.10
2019-05-16T01:41:21.036Z,8.90
2019-05-16T01:43:48.313Z,9.20
2019-05-16T01:46:17.968Z,7.90
2019-05-16T01:48:43.777Z,8.95
2019-05-16T01:51:10.941Z,11.55
2019-05-16T01:53:39.461Z,9.73
2019-05-16T01:56:08.432Z,10.45
2019-05-16T01:58:50.738Z,8.35
2019-05-16T02:01:19.058Z,9.00
2019-05-16T02:03:48.137Z,11.53
2019-05-16T02:06:15.136Z,8.03
2019-05-16T02:08:41.802Z,7.83
2019-05-16T02:11:08.643Z,8.70
2019-05-16T02:13:35.842Z,7.85
2019-05-16T02:16:02.713Z,9.90
2019-05-16T02:18:29.178Z,7.87
2019-05-16T02:20:58.668Z,8.78
2019-05-16T02:23:27.706Z,12.03
2019-05-16T02:25:54.292Z,8.33
2019-05-16T02:28:24.618Z,9.43
2019-05-16T02:30:51.531Z,8.28
2019-05-16T02:33:21.346Z,8.58
2019-05-16T02:35:47.034Z,9.33
2019-05-16T02:38:15.851Z,8.65
2019-05-16T02:40:42.330Z,10.40
2019-05-16T02:43:12.211Z,8.80
2019-05-16T02:45:41.184Z,10.03
2019-05-16T02:48:06.487Z,9.75
2019-05-16T02:50:33.328Z,13.18
2019-05-16T02:53:01.464Z,10.80
2019-05-16T02:55:30.792Z,7.62
2019-05-16T02:58:00.399Z,9.60
2019-05-16T03:00:35.609Z,10.05
2019-05-16T03:03:03.938Z,13.28
2019-05-16T03:05:31.522Z,10.60
2019-05-16T03:08:01.276Z,8.13
2019-05-16T03:10:27.358Z,11.80
2019-05-16T03:12:56.076Z,10.88
2019-05-16T03:15:23.006Z,10.08
2019-05-16T03:17:53.392Z,12.35
2019-05-16T03:20:21.496Z,9.30
2019-05-16T03:22:51.985Z,10.08
2019-05-16T03:25:17.920Z,8.35
2019-05-16T03:27:44.549Z,9.78
2019-05-16T03:30:15.305Z,10.80
2019-05-16T03:32:45.306Z,9.18
2019-05-16T03:35:14.436Z,12.58
2019-05-16T03:37:51.439Z,9.58
2019-05-16T03:40:05.493Z,10.15
2019-05-16T03:42:32.006Z,9.33
2019-05-16T03:45:01.583Z,10.88
2019-05-16T03:47:31.044Z,10.68
2019-05-16T03:49:56.096Z,9.63
2019-05-16T03:52:22.850Z,9.55
2019-05-16T03:54:50.695Z,9.00
2019-05-16T03:57:20.874Z,9.88
2019-05-16T03:59:45.634Z,9.35
2019-05-16T04:02:13.424Z,10.60
2019-05-16T04:04:41.696Z,11.33
2019-05-16T04:07:11.010Z,11.53
2019-05-16T04:09:40.884Z,12.88
2019-05-16T04:12:06.498Z,8.33
2019-05-16T04:14:33.272Z,10.10
2019-05-16T04:17:01.334Z,8.95
2019-05-16T04:19:31.195Z,9.33
2019-05-16T04:21:57.036Z,10.25
2019-05-16T04:24:24.210Z,12.90
2019-05-16T04:26:51.868Z,11.45
2019-05-16T04:29:20.736Z,13.95
2019-05-16T04:31:50.685Z,9.13
2019-05-16T04:34:15.530Z,9.93
2019-05-16T04:36:42.074Z,10.68
2019-05-16T04:39:11.871Z,8.68
2019-05-16T04:41:37.070Z,12.68
2019-05-16T04:44:04.815Z,10.63
2019-05-16T04:46:31.659Z,10.08
2019-05-16T04:49:01.456Z,11.50
2019-05-16T04:51:30.657Z,11.68
2019-05-16T04:53:56.825Z,11.15
2019-05-16T04:56:23.462Z,13.03
2019-05-16T04:58:51.361Z,9.33
2019-05-16T05:01:21.180Z,10.15
2019-05-16T05:04:02.139Z,9.93
2019-05-16T05:06:15.110Z,10.90
2019-05-16T05:08:54.464Z,11.85
2019-05-16T05:11:10.905Z,10.30
2019-05-16T05:13:41.333Z,9.43
2019-05-16T05:16:10.442Z,13.32
2019-05-16T05:18:36.403Z,11.33
2019-05-16T05:21:03.412Z,10.95
2019-05-16T05:23:30.241Z,8.95
2019-05-16T05:25:57.095Z,9.40
2019-05-16T05:28:23.618Z,10.32
2019-05-16T05:30:50.575Z,11.33
2019-05-16T05:33:17.843Z,12.80
2019-05-16T05:35:44.356Z,13.08
2019-05-16T05:38:11.030Z,10.45
2019-05-16T05:40:37.521Z,11.88
2019-05-16T05:43:03.926Z,10.30
2019-05-16T05:45:30.898Z,11.97
2019-05-16T05:48:00.027Z,11.10
2019-05-16T05:50:26.534Z,12.75
2019-05-16T05:52:53.040Z,10.48
2019-05-16T05:55:19.987Z,8.80
2019-05-16T05:57:46.852Z,8.43
2019-05-16T06:00:13.922Z,8.98
2019-05-16T06:02:40.717Z,12.10
2019-05-16T06:05:07.675Z,10.23
2019-05-16T06:07:34.315Z,9.43
2019-05-16T06:10:01.317Z,10.78
2019-05-16T06:12:30.093Z,10.13
2019-05-16T06:14:56.501Z,9.20
2019-05-16T06:17:23.668Z,9.10
2019-05-16T06:19:50.662Z,11.18
2019-05-16T06:22:17.619Z,10.85
2019-05-16T06:24:46.893Z,9.70
2019-05-16T06:27:13.648Z,8.90
2019-05-16T06:29:40.379Z,9.10
2019-05-16T06:32:07.061Z,8.48
2019-05-16T06:34:33.831Z,6.72
2019-05-16T06:37:00.681Z,8.53
2019-05-16T06:39:41.223Z,9.38
2019-05-16T06:41:57.453Z,8.63
2019-05-16T06:44:25.881Z,9.78
2019-05-16T06:47:08.795Z,9.65
2019-05-16T06:49:22.143Z,8.40
2019-05-16T06:51:48.760Z,8.98
2019-05-16T06:54:15.679Z,6.55
2019-05-16T06:56:42.518Z,8.18
2019-05-16T06:59:10.365Z,8.05
2019-05-16T07:01:37.250Z,12.28
2019-05-16T07:04:05.098Z,7.30
2019-05-16T07:06:51.829Z,5.95
2019-05-16T07:09:01.421Z,6.67
2019-05-16T07:11:30.646Z,6.37
2019-05-16T07:13:57.861Z,8.38
2019-05-16T07:16:24.860Z,5.42
2019-05-16T07:18:51.595Z,9.60
2019-05-16T07:21:20.167Z,7.72
2019-05-16T07:23:51.322Z,5.72
2019-05-16T07:26:20.670Z,10.03
2019-05-16T07:28:47.798Z,7.40
2019-05-16T07:31:18.757Z,7.12
2019-05-16T07:33:43.932Z,5.62
2019-05-16T07:36:10.794Z,8.35
2019-05-16T07:38:41.162Z,5.90
2019-05-16T07:41:16.711Z,5.33
2019-05-16T07:43:44.173Z,4.60
2019-05-16T07:46:11.361Z,4.37
2019-05-16T07:48:40.324Z,5.20
2019-05-16T07:51:10.112Z,7.58
2019-05-16T07:53:40.298Z,6.72
2019-05-16T07:56:07.569Z,6.12
2019-05-16T07:58:34.852Z,7.37
2019-05-16T08:01:07.608Z,5.97
2019-05-16T08:03:32.766Z,9.58
2019-05-16T08:06:01.799Z,8.35
2019-05-16T08:08:31.307Z,5.72
2019-05-16T08:11:01.491Z,6.03
2019-05-16T08:13:27.440Z,5.67
2019-05-16T08:15:54.616Z,4.55
2019-05-16T08:18:21.851Z,5.85
2019-05-16T08:20:52.387Z,5.85
2019-05-16T08:23:21.890Z,5.58
2019-05-16T08:25:50.458Z,5.17
2019-05-16T08:28:16.226Z,5.37
2019-05-16T08:30:43.014Z,8.90
2019-05-16T08:33:13.483Z,6.72
2019-05-16T08:35:41.343Z,6.97
2019-05-16T08:38:07.554Z,4.47
2019-05-16T08:40:59.723Z,4.90
2019-05-16T08:43:03.436Z,5.08
2019-05-16T08:45:31.503Z,8.13
2019-05-16T08:48:00.224Z,4.87
2019-05-16T08:50:27.160Z,5.28
2019-05-16T08:52:53.791Z,4.10
2019-05-16T08:55:21.795Z,3.60
2019-05-16T08:57:52.893Z,5.55
2019-05-16T09:00:21.521Z,4.78
2019-05-16T09:02:46.274Z,5.22
2019-05-16T09:05:14.123Z,4.55
2019-05-16T09:07:40.659Z,4.10
2019-05-16T09:10:35.496Z,8.00
2019-05-16T09:12:37.135Z,3.42
2019-05-16T09:15:07.387Z,5.37
2019-05-16T09:17:33.296Z,4.40
2019-05-16T09:19:59.863Z,4.50
2019-05-16T09:22:28.225Z,3.80
2019-05-16T09:24:57.415Z,3.50
2019-05-16T09:27:23.179Z,2.92
2019-05-16T09:29:49.619Z,2.95
2019-05-16T09:32:20.551Z,3.30
2019-05-16T09:34:47.600Z,3.45
2019-05-16T09:37:13.076Z,3.87
2019-05-16T09:39:39.673Z,4.25
2019-05-16T09:42:08.804Z,2.98
2019-05-16T09:44:37.026Z,3.40
2019-05-16T09:47:03.220Z,2.83
2019-05-16T09:49:29.905Z,3.02
2019-05-16T09:51:56.900Z,4.50
2019-05-16T09:54:23.521Z,3.98
2019-05-16T09:56:50.077Z,4.40
2019-05-16T09:59:17.308Z,3.52
2019-05-16T10:01:44.278Z,2.55
2019-05-16T10:04:11.134Z,2.50
2019-05-16T10:06:37.909Z,2.42
2019-05-16T10:09:06.477Z,3.70
2019-05-16T10:11:33.108Z,2.55
2019-05-16T10:13:59.914Z,2.77
2019-05-16T10:16:27.528Z,4.03
2019-05-16T10:18:56.808Z,5.72
2019-05-16T10:21:23.741Z,5.80
2019-05-16T10:23:50.659Z,3.77
2019-05-16T10:26:19.484Z,2.35
2019-05-16T10:28:46.947Z,2.70
2019-05-16T10:31:17.583Z,2.83
2019-05-16T10:33:43.372Z,2.60
2019-05-16T10:36:11.963Z,8.03
2019-05-16T10:38:38.888Z,4.58
2019-05-16T10:41:07.301Z,2.75
2019-05-16T10:43:33.805Z,6.40
2019-05-16T10:46:02.058Z,3.27
2019-05-16T10:48:28.750Z,3.45
2019-05-16T10:50:57.407Z,3.60
2019-05-16T10:53:42.739Z,5.17
2019-05-16T10:55:51.946Z,3.37
2019-05-16T10:59:03.818Z,4.78
2019-05-16T11:01:22.152Z,6.28
2019-05-16T11:03:35.248Z,6.47
2019-05-16T11:06:05.709Z,4.30
2019-05-16T11:08:30.093Z,4.53
2019-05-16T11:10:57.199Z,3.42
2019-05-16T11:13:23.743Z,4.97
2019-05-16T11:15:50.498Z,4.75
2019-05-16T11:18:19.736Z,3.70
2019-05-16T11:20:49.210Z,4.85
2019-05-16T11:23:14.963Z,4.00
2019-05-16T11:25:41.375Z,4.53
2019-05-16T11:28:07.891Z,5.50
2019-05-16T11:30:37.288Z,3.92
2019-05-16T11:33:03.106Z,3.67
2019-05-16T11:35:29.879Z,4.72
2019-05-16T11:37:57.139Z,5.80
2019-05-16T11:40:24.277Z,7.15
2019-05-16T11:43:05.488Z,7.42
2019-05-16T11:45:19.909Z,5.22
2019-05-16T11:47:47.355Z,4.85
2019-05-16T11:50:17.312Z,5.45
2019-05-16T11:52:42.556Z,7.22
2019-05-16T11:58:17.882Z,7.30
2019-05-16T12:00:43.946Z,6.80
2019-05-16T12:03:10.652Z,7.03
2019-05-16T12:05:39.234Z,4.35
2019-05-16T12:08:07.611Z,6.58
2019-05-16T12:10:36.346Z,7.85
2019-05-16T12:13:03.222Z,5.35
2019-05-16T12:15:30.175Z,6.97
2019-05-16T12:18:01.884Z,6.37
2019-05-16T12:20:27.351Z,6.00
2019-05-16T12:22:53.933Z,5.58
2019-05-16T12:25:21.977Z,6.20
2019-05-16T12:27:48.657Z,5.22
2019-05-16T12:30:17.717Z,5.25
2019-05-16T12:32:44.096Z,6.25
2019-05-16T12:35:10.863Z,4.33
2019-05-16T12:37:37.602Z,4.53
2019-05-16T12:40:07.888Z,4.78
2019-05-16T12:42:36.522Z,6.65
2019-05-16T12:45:07.335Z,3.27
2019-05-16T12:47:34.073Z,5.22
2019-05-16T12:50:00.870Z,2.17
2019-05-16T12:52:27.622Z,4.55
2019-05-16T12:54:56.838Z,3.45
2019-05-16T12:57:27.947Z,2.22
2019-05-16T12:59:52.618Z,2.37
2019-05-16T13:02:21.742Z,1.85
2019-05-16T13:04:48.781Z,2.95
2019-05-16T13:07:17.320Z,5.40
2019-05-16T13:09:46.341Z,4.12
2019-05-16T13:12:12.294Z,3.37
2019-05-16T13:14:40.411Z,3.67
2019-05-16T13:17:07.469Z,7.33
2019-05-16T13:19:34.885Z,5.67
2019-05-16T13:22:02.998Z,5.40
2019-05-16T13:24:29.937Z,5.58
2019-05-16T13:26:57.122Z,6.03
2019-05-16T13:29:23.886Z,6.78
2019-05-16T13:31:50.617Z,6.30
2019-05-16T13:34:17.938Z,5.10
2019-05-16T13:36:47.258Z,6.83
2019-05-16T13:39:13.261Z,5.28
2019-05-16T13:41:40.151Z,5.20
2019-05-16T13:44:17.652Z,5.40
2019-05-16T13:46:37.898Z,5.25
2019-05-16T13:49:06.731Z,8.05
2019-05-16T13:51:33.142Z,5.75
2019-05-16T13:53:59.794Z,7.42
2019-05-16T13:56:27.327Z,9.00
2019-05-16T13:58:56.868Z,8.45
2019-05-16T14:01:22.507Z,6.92
2019-05-16T14:03:49.528Z,7.03
2019-05-16T14:06:18.304Z,9.38
2019-05-16T14:08:46.809Z,11.75
2019-05-16T14:11:14.024Z,8.13
2019-05-16T14:13:40.765Z,8.43
2019-05-16T14:16:07.508Z,7.30
2019-05-16T14:18:34.780Z,9.13
2019-05-16T14:21:01.350Z,7.03
2019-05-16T14:23:29.234Z,9.05
2019-05-16T14:25:57.823Z,9.08
2019-05-16T14:28:24.128Z,7.40
2019-05-16T14:30:50.705Z,7.37
2019-05-16T14:33:17.366Z,9.18
2019-05-16T14:35:44.106Z,9.50
2019-05-16T14:38:10.994Z,8.93
2019-05-16T14:40:37.682Z,8.15
2019-05-16T14:43:07.801Z,9.33
2019-05-16T14:45:34.299Z,7.25
2019-05-16T14:48:01.420Z,6.92
2019-05-16T14:50:28.317Z,6.30
2019-05-16T14:52:56.675Z,6.83
2019-05-16T14:55:27.397Z,7.22
2019-05-16T14:57:53.676Z,8.50
2019-05-16T15:00:20.741Z,7.72
2019-05-16T15:02:48.155Z,7.42
2019-05-16T15:05:17.110Z,7.37
2019-05-16T15:07:43.926Z,5.08
2019-05-16T15:10:10.867Z,7.65
2019-05-16T15:12:37.889Z,9.08
2019-05-16T15:15:20.294Z,8.45
2019-05-16T15:17:37.537Z,7.37
2019-05-16T15:20:06.742Z,6.55
2019-05-16T15:22:33.551Z,7.17
2019-05-16T15:25:00.277Z,7.47
2019-05-16T15:27:26.972Z,7.40
2019-05-16T15:29:54.009Z,7.58
2019-05-16T15:32:20.774Z,6.83
2019-05-16T15:34:47.902Z,6.90
2019-05-16T15:37:17.134Z,5.83
2019-05-16T15:39:47.359Z,8.18
2019-05-16T15:42:12.535Z,9.60
2019-05-16T15:44:39.127Z,8.95
2019-05-16T15:47:08.125Z,6.37
2019-05-16T15:49:37.561Z,9.13
2019-05-16T15:52:03.422Z,7.62
2019-05-16T15:54:31.357Z,6.78
2019-05-16T15:56:58.184Z,9.48
2019-05-16T15:59:27.177Z,7.42
2019-05-16T16:01:53.906Z,9.00
2019-05-16T16:04:20.979Z,7.05
2019-05-16T16:06:47.919Z,10.38
2019-05-16T16:09:17.240Z,7.97
2019-05-16T16:11:43.953Z,9.68
2019-05-16T16:14:11.213Z,6.67
2019-05-16T16:16:38.325Z,11.55
2019-05-16T16:19:06.613Z,6.05
2019-05-16T16:21:33.570Z,8.03
2019-05-16T16:24:00.517Z,9.00
2019-05-16T16:26:27.545Z,6.50
2019-05-16T16:28:55.569Z,8.45
2019-05-16T16:31:22.333Z,9.93
2019-05-16T16:33:49.382Z,8.80
2019-05-16T16:36:17.124Z,7.28
2019-05-16T16:38:44.567Z,5.90
2019-05-16T16:41:11.614Z,6.22
2019-05-16T16:43:38.736Z,6.95
2019-05-16T16:46:10.241Z,7.78
2019-05-16T16:48:34.699Z,6.35
2019-05-16T16:51:01.982Z,7.17
2019-05-16T16:53:28.945Z,5.85
2019-05-16T16:55:56.897Z,7.83
2019-05-16T16:58:26.673Z,10.72
2019-05-16T17:00:53.065Z,8.28
2019-05-16T17:03:20.244Z,8.53
2019-05-16T17:05:47.014Z,8.65
2019-05-16T17:08:16.571Z,8.70
2019-05-16T17:10:42.726Z,7.75
2019-05-16T17:13:09.766Z,8.10
2019-05-16T17:15:38.160Z,8.48
2019-05-16T17:18:06.948Z,8.03
2019-05-16T17:20:37.295Z,6.50
2019-05-16T17:23:06.601Z,7.20
2019-05-16T17:25:33.717Z,8.35
2019-05-16T17:28:02.221Z,5.72
2019-05-16T17:30:29.477Z,7.08
2019-05-16T17:32:56.691Z,7.80
2019-05-16T17:35:23.608Z,7.40
2019-05-16T17:37:50.694Z,8.18
2019-05-16T17:40:18.340Z,6.05
2019-05-16T17:42:47.720Z,6.95
2019-05-16T17:45:14.679Z,7.97
2019-05-16T17:47:41.814Z,9.80
2019-05-16T17:50:10.025Z,8.48
2019-05-16T17:52:37.067Z,6.83
2019-05-16T17:55:07.250Z,9.63
2019-05-16T17:57:36.944Z,9.67
2019-05-16T18:00:07.103Z,7.97
2019-05-16T18:02:37.222Z,8.65
2019-05-16T18:05:08.703Z,6.83
2019-05-16T18:07:36.807Z,8.95
2019-05-16T18:10:07.423Z,6.83
2019-05-16T18:12:36.994Z,9.35
2019-05-16T18:15:08.415Z,7.65
2019-05-16T18:17:36.132Z,8.70
2019-05-16T18:20:06.482Z,8.70
2019-05-16T18:22:33.478Z,7.17
2019-05-16T18:25:00.436Z,9.65
2019-05-16T18:27:27.430Z,8.33
2019-05-16T18:29:54.474Z,8.25
2019-05-16T18:32:21.499Z,8.40
2019-05-16T18:34:48.636Z,8.15
2019-05-16T18:37:17.317Z,7.33
2019-05-16T18:39:44.356Z,10.53
2019-05-16T18:42:11.373Z,8.25
2019-05-16T18:44:38.354Z,8.55
2019-05-16T18:47:10.474Z,12.95
2019-05-16T18:49:36.559Z,8.00
2019-05-16T18:52:03.142Z,6.92
2019-05-16T18:54:29.922Z,7.78
2019-05-16T18:56:57.799Z,6.80
2019-05-16T18:59:26.201Z,7.67
2019-05-16T19:01:53.373Z,6.58
2019-05-16T19:04:20.528Z,7.45
2019-05-16T19:06:47.312Z,8.68
2019-05-16T19:09:16.488Z,7.15
2019-05-16T19:11:43.608Z,8.75
2019-05-16T19:14:10.603Z,7.33
2019-05-16T19:16:37.954Z,6.35
2019-05-16T19:19:07.402Z,5.83
2019-05-16T19:21:36.738Z,7.22
2019-05-16T19:24:03.265Z,8.45
2019-05-16T19:26:30.453Z,9.05
2019-05-16T19:28:57.391Z,7.22
2019-05-16T19:31:24.941Z,9.35
2019-05-16T19:33:51.511Z,10.45
2019-05-16T19:36:19.459Z,11.08
2019-05-16T19:38:46.616Z,7.45
2019-05-16T19:41:13.970Z,8.55
2019-05-16T19:43:40.703Z,8.90
2019-05-16T19:46:07.300Z,8.15
2019-05-16T19:48:33.781Z,9.08
2019-05-16T19:51:01.620Z,10.93
2019-05-16T19:53:28.033Z,7.67
2019-05-16T19:55:56.549Z,11.83
2019-05-16T19:58:23.321Z,6.42
2019-05-16T20:00:49.918Z,8.08
2019-05-16T20:03:16.804Z,8.93
2019-05-16T20:05:47.437Z,9.83
2019-05-16T20:08:13.581Z,11.48
2019-05-16T20:10:40.460Z,9.10
2019-05-16T20:13:07.773Z,10.10
2019-05-16T20:15:36.671Z,9.45
2019-05-16T20:18:09.251Z,6.92
2019-05-16T20:20:37.099Z,8.20
2019-05-16T20:23:05.133Z,10.80
2019-05-16T20:25:36.260Z,10.20
2019-05-16T20:28:09.867Z,8.18
2019-05-16T20:30:37.252Z,7.92
2019-05-16T20:33:08.845Z,7.05
2019-05-16T20:35:37.487Z,9.45
2019-05-16T20:38:06.639Z,9.40
2019-05-16T20:40:32.941Z,9.48
2019-05-16T20:42:59.978Z,9.05
2019-05-16T20:45:27.150Z,8.70
2019-05-16T20:48:07.237Z,14.45
2019-05-16T20:50:22.679Z,11.68
2019-05-16T20:52:52.612Z,8.20
2019-05-16T20:55:19.988Z,8.13
2019-05-16T20:57:48.523Z,9.98
2019-05-16T21:00:17.505Z,11.10
2019-05-16T21:02:44.084Z,9.43
2019-05-16T21:05:11.692Z,8.43
2019-05-16T21:07:38.619Z,12.70
2019-05-16T21:10:07.925Z,9.08
2019-05-16T21:12:37.288Z,7.30
2019-05-16T21:15:06.386Z,8.58
2019-05-16T21:17:33.776Z,8.48
2019-05-16T21:20:00.501Z,8.73
2019-05-16T21:22:27.487Z,7.75
2019-05-16T21:24:54.550Z,14.00
2019-05-16T21:27:21.678Z,7.90
2019-05-16T21:29:48.760Z,13.08
2019-05-16T21:32:16.235Z,8.23
2019-05-16T21:34:43.511Z,8.65
2019-05-16T21:37:17.083Z,9.40
2019-05-16T21:39:41.620Z,9.78
2019-05-16T21:42:08.716Z,11.88
2019-05-16T21:44:37.406Z,10.38
2019-05-16T21:47:04.503Z,11.60
2019-05-16T21:49:32.047Z,10.10
2019-05-16T21:51:59.141Z,10.15
2019-05-16T21:54:28.672Z,7.60
2019-05-16T21:56:57.034Z,11.38
2019-05-16T21:59:23.890Z,9.18
2019-05-16T22:01:51.382Z,10.32
2019-05-16T22:04:18.381Z,8.70
2019-05-16T22:06:47.319Z,11.20
2019-05-16T22:09:14.068Z,9.03
2019-05-16T22:11:41.728Z,10.80
2019-05-16T22:14:10.890Z,8.75
2019-05-16T22:16:39.345Z,10.10
2019-05-16T22:19:07.068Z,14.10
2019-05-16T22:21:34.481Z,12.43
2019-05-16T22:24:01.917Z,11.57
2019-05-16T22:26:30.031Z,9.50
2019-05-16T22:28:57.443Z,10.50
2019-05-16T22:31:26.827Z,10.40
2019-05-16T22:33:53.167Z,10.10
2019-05-16T22:36:19.999Z,13.10
2019-05-16T22:38:47.509Z,10.82
2019-05-16T22:41:14.329Z,13.25
2019-05-16T22:43:41.100Z,11.97
2019-05-16T22:46:09.982Z,12.35
2019-05-16T22:48:37.193Z,14.43
2019-05-16T22:51:04.208Z,15.32
2019-05-16T22:53:31.097Z,11.25
2019-05-16T22:55:57.969Z,10.45
2019-05-16T22:58:26.775Z,13.58
2019-05-16T23:00:53.555Z,10.13
2019-05-16T23:03:20.880Z,10.03
2019-05-16T23:05:48.206Z,11.05
2019-05-16T23:08:16.452Z,9.55
2019-05-16T23:10:45.715Z,9.73
2019-05-16T23:13:12.599Z,9.35
2019-05-16T23:15:39.401Z,12.98
2019-05-16T23:18:06.985Z,12.80
2019-05-16T23:20:36.739Z,13.10
2019-05-16T23:23:03.443Z,13.93
2019-05-16T23:25:30.525Z,12.53
2019-05-16T23:27:57.504Z,13.95
2019-05-16T23:30:24.512Z,11.85
2019-05-16T23:32:51.382Z,13.95
2019-05-16T23:35:18.438Z,12.90
2019-05-16T23:37:46.426Z,10.50
2019-05-16T23:40:14.157Z,12.40
2019-05-16T23:42:41.296Z,11.25
2019-05-16T23:45:09.145Z,16.37
2019-05-16T23:47:36.571Z,10.88
2019-05-16T23:50:07.340Z,11.20
2019-05-16T23:52:36.834Z,12.73
2019-05-16T23:55:08.285Z,10.30
2019-05-16T23:57:37.310Z,13.10
